createdAt,value
2022-11-13T00:01:20.046Z,7.57
2022-11-13T00:03:49.864Z,7.55
2022-11-13T00:06:20.168Z,7.53
2022-11-13T00:08:47.890Z,7.49
2022-11-13T00:11:19.784Z,7.52
2022-11-13T00:13:47.495Z,7.51
2022-11-13T00:16:17.434Z,7.50
2022-11-13T00:18:47.440Z,7.47
2022-11-13T00:21:19.434Z,7.45
2022-11-13T00:23:46.268Z,7.44
2022-11-13T00:26:15.978Z,7.41
2022-11-13T00:28:43.050Z,7.38
2022-11-13T00:31:11.778Z,7.33
2022-11-13T00:34:05.331Z,7.31
2022-11-13T00:36:27.462Z,7.28
2022-11-13T00:38:57.014Z,7.22
2022-11-13T00:41:24.553Z,7.19
2022-11-13T00:43:51.640Z,7.17
2022-11-13T00:46:18.688Z,7.14
2022-11-13T00:48:45.817Z,7.09
2022-11-13T00:51:12.531Z,7.04
2022-11-13T00:53:41.643Z,6.98
2022-11-13T00:56:08.284Z,6.89
2022-11-13T00:58:34.893Z,6.83
2022-11-13T01:01:11.520Z,6.86
2022-11-13T01:03:38.312Z,6.75
2022-11-13T01:06:14.632Z,6.74
2022-11-13T01:08:41.579Z,6.66
2022-11-13T01:11:14.176Z,6.68
2022-11-13T01:13:42.473Z,6.65
2022-11-13T01:16:11.500Z,6.63
2022-11-13T01:18:38.164Z,6.52
2022-11-13T01:21:16.938Z,6.54
2022-11-13T01:23:43.604Z,6.54
2022-11-13T01:26:15.269Z,6.52
2022-11-13T01:28:43.617Z,6.47
2022-11-13T01:31:16.816Z,6.47
2022-11-13T01:33:45.191Z,6.43
2022-11-13T01:36:16.660Z,6.37
2022-11-13T01:38:45.416Z,6.36
2022-11-13T01:41:23.852Z,6.34
2022-11-13T01:43:51.487Z,6.30
2022-11-13T01:46:31.848Z,6.23
2022-11-13T01:49:10.816Z,6.26
2022-11-13T01:51:45.436Z,6.26
2022-11-13T01:54:17.784Z,6.17
2022-11-13T01:56:44.689Z,6.19
2022-11-13T01:59:18.826Z,6.20
2022-11-13T02:01:45.450Z,6.17
2022-11-13T02:04:12.035Z,6.14
2022-11-13T02:06:50.786Z,6.13
2022-11-13T02:09:22.142Z,6.10
2022-11-13T02:11:49.371Z,6.05
2022-11-13T02:14:17.430Z,6.09
2022-11-13T02:16:47.351Z,6.09
2022-11-13T02:19:29.720Z,6.00
2022-11-13T02:22:22.589Z,5.95
2022-11-13T02:24:55.142Z,6.01
2022-11-13T02:27:44.966Z,5.97
2022-11-13T02:30:25.364Z,5.93
2022-11-13T02:32:55.966Z,5.92
2022-11-13T02:35:26.793Z,5.85
2022-11-13T02:37:56.191Z,5.86
2022-11-13T02:40:24.278Z,5.86
2022-11-13T02:42:51.080Z,5.84
2022-11-13T02:45:20.085Z,5.85
2022-11-13T02:47:46.717Z,5.83
2022-11-13T02:50:14.053Z,5.85
2022-11-13T02:52:40.825Z,5.90
2022-11-13T02:55:07.705Z,5.93
2022-11-13T02:57:36.545Z,5.96
2022-11-13T03:00:07.985Z,5.95
2022-11-13T03:02:39.239Z,5.98
2022-11-13T03:05:13.997Z,6.01
2022-11-13T03:07:42.105Z,5.95
2022-11-13T03:10:10.656Z,6.04
2022-11-13T03:12:37.660Z,6.06
2022-11-13T03:15:08.355Z,5.98
2022-11-13T03:17:35.366Z,6.06
2022-11-13T03:20:02.056Z,6.06
2022-11-13T03:22:28.659Z,6.09
2022-11-13T03:24:57.495Z,6.03
2022-11-13T03:27:24.002Z,6.10
2022-11-13T03:29:50.513Z,6.16
2022-11-13T03:32:17.082Z,6.20
2022-11-13T03:34:43.562Z,6.22
2022-11-13T03:37:10.147Z,6.19
2022-11-13T03:39:36.628Z,6.25
2022-11-13T03:42:03.174Z,6.29
2022-11-13T03:44:29.899Z,6.37
2022-11-13T03:46:58.754Z,6.37
2022-11-13T03:49:25.254Z,6.42
2022-11-13T03:51:51.835Z,6.42
2022-11-13T03:54:18.417Z,6.48
2022-11-13T03:56:44.917Z,6.53
2022-11-13T03:59:11.473Z,6.60
2022-11-13T04:01:40.236Z,6.65
2022-11-13T04:04:06.797Z,6.69
2022-11-13T04:06:36.298Z,6.75
2022-11-13T04:09:05.387Z,6.80
2022-11-13T04:11:32.010Z,6.86
2022-11-13T04:13:58.558Z,6.92
2022-11-13T04:16:25.110Z,6.97
2022-11-13T04:18:53.883Z,7.00
2022-11-13T04:21:20.405Z,7.03
2022-11-13T04:23:47.365Z,7.07
2022-11-13T04:26:16.298Z,7.10
2022-11-13T04:28:45.300Z,7.06
2022-11-13T04:31:14.522Z,7.09
2022-11-13T04:33:43.512Z,7.11
2022-11-13T04:36:10.239Z,7.10
2022-11-13T04:38:39.214Z,7.13
2022-11-13T04:41:24.310Z,7.16
2022-11-13T04:43:50.846Z,7.19
2022-11-13T04:46:17.342Z,7.14
2022-11-13T04:48:43.865Z,7.18
2022-11-13T04:51:10.410Z,7.20
2022-11-13T04:53:36.978Z,7.13
2022-11-13T04:56:03.733Z,7.16
2022-11-13T04:58:30.780Z,7.12
2022-11-13T05:00:57.449Z,7.02
2022-11-13T05:03:24.052Z,6.97
2022-11-13T05:05:50.626Z,6.94
2022-11-13T05:08:17.159Z,6.92
2022-11-13T05:10:46.465Z,6.89
2022-11-13T05:13:13.036Z,6.82
2022-11-13T05:15:39.569Z,6.80
2022-11-13T05:18:06.142Z,6.72
2022-11-13T05:20:32.699Z,6.70
2022-11-13T05:23:01.695Z,6.70
2022-11-13T05:25:28.282Z,6.65
2022-11-13T05:27:57.564Z,6.57
2022-11-13T05:30:24.510Z,6.56
2022-11-13T05:32:53.500Z,6.51
2022-11-13T05:35:20.245Z,6.47
2022-11-13T05:37:46.880Z,6.43
2022-11-13T05:40:13.464Z,6.36
2022-11-13T05:42:42.212Z,6.35
2022-11-13T05:45:12.070Z,6.24
2022-11-13T05:47:38.790Z,6.30
2022-11-13T05:50:05.837Z,6.30
2022-11-13T05:52:32.577Z,6.27
2022-11-13T05:55:01.410Z,6.20
2022-11-13T05:57:27.907Z,6.19
2022-11-13T05:59:54.610Z,6.13
2022-11-13T06:02:21.293Z,6.05
2022-11-13T06:04:54.078Z,6.07
2022-11-13T06:07:22.909Z,5.99
2022-11-13T06:09:49.627Z,5.99
2022-11-13T06:12:16.100Z,5.90
2022-11-13T06:14:42.662Z,5.89
2022-11-13T06:17:09.339Z,5.86
2022-11-13T06:19:35.817Z,5.89
2022-11-13T06:22:02.307Z,5.78
2022-11-13T06:24:28.866Z,5.82
2022-11-13T06:26:55.352Z,5.79
2022-11-13T06:29:22.081Z,5.77
2022-11-13T06:31:48.680Z,5.69
2022-11-13T06:34:15.223Z,5.68
2022-11-13T06:36:41.802Z,5.69
2022-11-13T06:39:09.547Z,5.68
2022-11-13T06:41:38.421Z,5.64
2022-11-13T06:44:07.765Z,5.62
2022-11-13T06:46:34.408Z,5.63
2022-11-13T06:49:03.428Z,5.61
2022-11-13T06:51:31.410Z,5.58
2022-11-13T06:53:58.473Z,5.44
2022-11-13T06:56:26.394Z,5.51
2022-11-13T06:58:54.824Z,5.45
2022-11-13T07:01:23.717Z,5.50
2022-11-13T07:03:50.335Z,5.47
2022-11-13T07:06:22.893Z,5.40
2022-11-13T07:08:49.842Z,5.50
2022-11-13T07:11:18.828Z,5.51
2022-11-13T07:13:45.480Z,5.50
2022-11-13T07:16:17.959Z,5.54
2022-11-13T07:18:54.681Z,5.53
2022-11-13T07:21:22.144Z,5.52
2022-11-13T07:23:49.829Z,5.53
2022-11-13T07:26:16.652Z,5.53
2022-11-13T07:28:43.520Z,5.54
2022-11-13T07:31:14.252Z,5.55
2022-11-13T07:33:43.287Z,5.57
2022-11-13T07:36:10.802Z,5.54
2022-11-13T07:38:37.760Z,5.54
2022-11-13T07:41:04.540Z,5.61
2022-11-13T07:43:31.215Z,5.63
2022-11-13T07:45:58.564Z,5.66
2022-11-13T07:48:26.978Z,5.70
2022-11-13T07:50:54.316Z,5.66
2022-11-13T07:53:24.005Z,5.76
2022-11-13T07:55:50.831Z,5.83
2022-11-13T07:58:19.922Z,5.81
2022-11-13T08:00:46.675Z,5.90
2022-11-13T08:03:15.710Z,6.00
2022-11-13T08:05:43.347Z,6.02
2022-11-13T08:08:16.820Z,6.08
2022-11-13T08:10:43.363Z,6.06
2022-11-13T08:13:11.227Z,6.15
2022-11-13T08:15:38.448Z,6.21
2022-11-13T08:18:05.554Z,6.22
2022-11-13T08:20:32.542Z,6.27
2022-11-13T08:23:00.712Z,6.28
2022-11-13T08:25:28.332Z,6.33
2022-11-13T08:27:55.800Z,6.38
2022-11-13T08:30:25.592Z,6.36
2022-11-13T08:32:52.292Z,6.48
2022-11-13T08:35:21.324Z,6.57
2022-11-13T08:37:49.825Z,6.67
2022-11-13T08:40:16.386Z,6.75
2022-11-13T08:42:42.941Z,6.83
2022-11-13T08:45:10.018Z,6.90
2022-11-13T08:47:36.934Z,6.97
2022-11-13T08:50:05.775Z,6.95
2022-11-13T08:52:32.374Z,7.10
2022-11-13T08:54:58.975Z,7.18
2022-11-13T08:57:30.176Z,7.24
2022-11-13T08:59:57.365Z,7.35
2022-11-13T09:02:27.050Z,7.44
2022-11-13T09:04:53.605Z,7.59
2022-11-13T09:07:24.597Z,7.97
2022-11-13T09:09:53.657Z,8.53
2022-11-13T09:12:20.225Z,8.85
2022-11-13T09:14:49.217Z,9.13
2022-11-13T09:17:16.274Z,9.43
2022-11-13T09:19:42.956Z,9.63
2022-11-13T09:22:10.727Z,9.65
2022-11-13T09:24:37.935Z,9.84
2022-11-13T09:27:04.773Z,9.97
2022-11-13T09:29:31.316Z,9.99
2022-11-13T09:31:57.882Z,10.05
2022-11-13T09:34:27.324Z,10.19
2022-11-13T09:36:54.684Z,10.32
2022-11-13T09:39:21.438Z,10.41
2022-11-13T09:41:53.296Z,10.67
2022-11-13T09:44:41.636Z,10.81
2022-11-13T09:47:24.418Z,10.89
2022-11-13T09:50:02.860Z,10.89
2022-11-13T09:52:37.421Z,10.94
2022-11-13T09:55:04.598Z,11.09
2022-11-13T09:58:03.455Z,11.17
2022-11-13T10:00:34.322Z,11.22
2022-11-13T10:03:46.145Z,11.39
2022-11-13T10:06:21.185Z,11.50
2022-11-13T10:08:56.041Z,11.61
2022-11-13T10:11:41.156Z,11.71
2022-11-13T10:14:30.753Z,11.82
2022-11-13T10:17:24.741Z,11.89
2022-11-13T10:20:01.029Z,11.95
2022-11-13T10:22:40.737Z,12.09
2022-11-13T10:25:20.982Z,12.19
2022-11-13T10:27:59.628Z,12.26
2022-11-13T10:30:26.947Z,12.34
2022-11-13T10:32:53.879Z,12.51
2022-11-13T10:35:23.483Z,12.63
2022-11-13T10:38:22.347Z,12.65
2022-11-13T10:40:49.208Z,12.75
2022-11-13T10:43:15.761Z,12.88
2022-11-13T10:45:53.196Z,12.95
2022-11-13T10:48:29.962Z,12.98
2022-11-13T10:51:05.104Z,12.90
2022-11-13T10:53:41.661Z,13.02
2022-11-13T10:56:34.764Z,13.14
2022-11-13T10:59:13.338Z,13.17
2022-11-13T11:01:41.762Z,13.15
2022-11-13T11:04:12.994Z,13.17
2022-11-13T11:09:32.570Z,13.27
2022-11-13T11:12:18.808Z,13.37
2022-11-13T11:14:57.241Z,13.45
2022-11-13T11:17:42.852Z,13.53
2022-11-13T11:20:21.879Z,13.67
2022-11-13T11:22:54.330Z,13.77
2022-11-13T11:25:38.917Z,13.90
2022-11-13T11:28:13.216Z,14.06
2022-11-13T11:30:49.690Z,14.18
2022-11-13T11:33:48.785Z,14.40
2022-11-13T11:36:28.265Z,14.40
2022-11-13T11:39:00.104Z,14.37
2022-11-13T11:41:34.509Z,14.39
2022-11-13T11:44:18.399Z,14.48
2022-11-13T11:46:46.790Z,14.57
2022-11-13T11:49:13.542Z,14.73
2022-11-13T11:51:45.518Z,14.73
2022-11-13T11:54:30.982Z,14.71
2022-11-13T11:57:06.016Z,14.80
2022-11-13T11:59:56.836Z,14.93
2022-11-13T12:02:38.787Z,14.97
2022-11-13T12:05:19.567Z,14.98
2022-11-13T12:07:49.534Z,15.12
2022-11-13T12:10:37.398Z,15.16
2022-11-13T12:13:12.873Z,15.25
2022-11-13T12:15:54.434Z,15.27
2022-11-13T12:18:41.814Z,15.44
2022-11-13T12:21:08.211Z,15.56
2022-11-13T12:24:11.177Z,15.53
2022-11-13T12:27:01.667Z,15.67
2022-11-13T12:29:57.344Z,15.79
2022-11-13T12:33:01.305Z,15.88
2022-11-13T12:35:29.421Z,15.92
2022-11-13T12:38:08.141Z,15.95
2022-11-13T12:40:44.315Z,15.99
2022-11-13T12:43:23.563Z,16.07
2022-11-13T12:45:56.002Z,16.17
2022-11-13T12:48:40.691Z,16.04
2022-11-13T12:51:13.788Z,16.25
2022-11-13T12:53:46.143Z,16.20
2022-11-13T12:56:24.629Z,16.25
2022-11-13T12:59:28.500Z,16.23
2022-11-13T13:01:52.210Z,16.24
2022-11-13T13:04:43.372Z,16.21
2022-11-13T13:07:22.984Z,16.22
2022-11-13T13:10:19.737Z,16.20
2022-11-13T13:13:15.438Z,16.20
2022-11-13T13:15:55.314Z,16.18
2022-11-13T13:18:21.868Z,16.14
2022-11-13T13:20:57.619Z,16.12
2022-11-13T13:23:41.620Z,16.13
2022-11-13T13:26:45.021Z,16.09
2022-11-13T13:29:28.776Z,15.99
2022-11-13T13:32:19.419Z,16.05
2022-11-13T13:35:19.690Z,16.02
2022-11-13T13:38:01.451Z,15.96
2022-11-13T13:40:41.305Z,15.97
2022-11-13T13:43:42.429Z,15.93
2022-11-13T13:46:18.873Z,15.92
2022-11-13T13:48:50.467Z,15.91
2022-11-13T13:51:19.797Z,15.89
2022-11-13T13:53:47.898Z,15.85
2022-11-13T13:56:14.857Z,15.84
2022-11-13T13:58:42.411Z,15.70
2022-11-13T14:01:19.364Z,15.76
2022-11-13T14:03:46.682Z,15.68
2022-11-13T14:06:22.125Z,15.68
2022-11-13T14:08:48.869Z,15.65
2022-11-13T14:11:27.186Z,15.61
2022-11-13T14:13:56.174Z,15.53
2022-11-13T14:16:25.126Z,15.52
2022-11-13T14:18:53.851Z,15.52
2022-11-13T14:21:23.398Z,15.47
2022-11-13T14:23:52.459Z,15.47
2022-11-13T14:26:22.734Z,15.42
2022-11-13T14:29:00.325Z,15.39
2022-11-13T14:31:30.525Z,15.39
2022-11-13T14:34:00.724Z,15.34
2022-11-13T14:36:31.506Z,15.28
2022-11-13T14:38:59.195Z,15.25
2022-11-13T14:41:46.744Z,15.20
2022-11-13T14:44:13.321Z,15.16
2022-11-13T14:46:46.001Z,15.12
2022-11-13T14:49:31.167Z,15.08
2022-11-13T14:51:58.693Z,15.00
2022-11-13T14:55:08.120Z,14.92
2022-11-13T14:57:23.258Z,14.83
2022-11-13T14:59:49.905Z,14.81
2022-11-13T15:02:16.482Z,14.74
2022-11-13T15:04:42.993Z,14.65
2022-11-13T15:07:29.372Z,14.60
2022-11-13T15:09:57.473Z,14.52
2022-11-13T15:12:24.375Z,14.40
2022-11-13T15:14:51.499Z,14.38
2022-11-13T15:17:21.001Z,14.33
2022-11-13T15:19:51.022Z,14.27
2022-11-13T15:22:27.157Z,14.19
2022-11-13T15:24:54.779Z,14.10
2022-11-13T15:27:24.356Z,14.01
2022-11-13T15:29:50.887Z,13.95
2022-11-13T15:32:20.344Z,13.83
2022-11-13T15:34:46.924Z,13.80
2022-11-13T15:37:15.785Z,13.69
2022-11-13T15:39:42.433Z,13.58
2022-11-13T15:42:17.759Z,13.35
2022-11-13T15:44:44.315Z,13.37
2022-11-13T15:47:31.086Z,13.24
2022-11-13T15:50:14.872Z,13.12
2022-11-13T15:52:46.539Z,13.03
2022-11-13T15:55:24.592Z,12.87
2022-11-13T15:57:51.696Z,12.83
2022-11-13T16:00:25.183Z,12.71
2022-11-13T16:02:56.663Z,12.58
2022-11-13T16:05:29.698Z,12.50
2022-11-13T16:07:56.849Z,12.38
2022-11-13T16:10:27.540Z,12.27
2022-11-13T16:12:55.397Z,12.11
2022-11-13T16:15:22.258Z,11.96
2022-11-13T16:17:55.745Z,11.91
2022-11-13T16:20:22.375Z,11.83
2022-11-13T16:22:48.933Z,11.74
2022-11-13T16:25:21.703Z,11.65
2022-11-13T16:27:53.522Z,11.56
2022-11-13T16:30:21.907Z,11.39
2022-11-13T16:32:48.784Z,11.34
2022-11-13T16:35:17.036Z,11.34
2022-11-13T16:37:46.407Z,11.20
2022-11-13T16:40:19.419Z,11.21
2022-11-13T16:42:49.151Z,11.07
2022-11-13T16:45:18.447Z,11.08
2022-11-13T16:47:46.101Z,11.03
2022-11-13T16:50:24.915Z,10.97
2022-11-13T16:52:51.475Z,10.91
2022-11-13T16:55:18.203Z,10.84
2022-11-13T16:57:44.810Z,10.68
2022-11-13T17:00:17.852Z,10.71
2022-11-13T17:02:44.660Z,10.64
2022-11-13T17:05:15.848Z,10.55
2022-11-13T17:07:42.923Z,10.48
2022-11-13T17:10:32.640Z,10.42
2022-11-13T17:13:00.637Z,10.33
2022-11-13T17:15:27.287Z,10.28
2022-11-13T17:17:57.133Z,10.19
2022-11-13T17:20:24.492Z,10.17
2022-11-13T17:22:51.036Z,10.11
2022-11-13T17:25:18.623Z,10.02
2022-11-13T17:27:45.120Z,9.95
2022-11-13T17:30:15.178Z,9.93
2022-11-13T17:32:41.762Z,9.85
2022-11-13T17:35:13.489Z,9.76
2022-11-13T17:37:40.407Z,9.72
2022-11-13T17:40:10.208Z,9.61
2022-11-13T17:42:36.746Z,9.59
2022-11-13T17:45:04.685Z,9.51
2022-11-13T17:47:34.011Z,9.43
2022-11-13T17:50:07.606Z,9.36
2022-11-13T17:52:34.527Z,9.30
2022-11-13T17:55:01.065Z,9.28
2022-11-13T17:57:27.602Z,9.26
2022-11-13T17:59:56.620Z,9.25
2022-11-13T18:02:23.976Z,9.22
2022-11-13T18:04:50.525Z,9.22
2022-11-13T18:07:17.268Z,9.18
2022-11-13T18:09:43.820Z,9.00
2022-11-13T18:12:10.560Z,9.08
2022-11-13T18:14:37.108Z,8.99
2022-11-13T18:17:06.213Z,8.94
2022-11-13T18:19:33.217Z,8.93
2022-11-13T18:22:04.245Z,8.92
2022-11-13T18:24:30.860Z,8.70
2022-11-13T18:26:57.654Z,8.80
2022-11-13T18:29:24.214Z,8.78
2022-11-13T18:31:50.773Z,8.80
2022-11-13T18:34:17.591Z,8.81
2022-11-13T18:36:46.688Z,8.77
2022-11-13T18:39:16.558Z,8.75
2022-11-13T18:41:43.648Z,8.65
2022-11-13T18:44:12.652Z,8.65
2022-11-13T18:46:39.683Z,8.62
2022-11-13T18:49:07.399Z,8.50
2022-11-13T18:51:35.616Z,8.50
2022-11-13T18:54:11.642Z,8.43
2022-11-13T18:56:41.712Z,8.38
2022-11-13T18:59:09.418Z,8.36
2022-11-13T19:01:38.265Z,8.29
2022-11-13T19:04:22.900Z,8.22
2022-11-13T19:06:52.593Z,8.19
2022-11-13T19:09:19.358Z,8.19
2022-11-13T19:11:46.599Z,8.07
2022-11-13T19:14:15.484Z,8.05
2022-11-13T19:16:42.048Z,8.01
2022-11-13T19:19:20.259Z,8.04
2022-11-13T19:21:47.578Z,8.00
2022-11-13T19:24:14.964Z,7.92
2022-11-13T19:26:43.176Z,7.95
2022-11-13T19:29:09.770Z,7.87
2022-11-13T19:31:36.276Z,7.81
2022-11-13T19:34:06.212Z,7.90
2022-11-13T19:36:33.931Z,7.86
2022-11-13T19:39:00.718Z,7.84
2022-11-13T19:41:30.069Z,7.81
2022-11-13T19:43:59.782Z,7.79
2022-11-13T19:46:26.818Z,7.73
2022-11-13T19:48:53.656Z,7.69
2022-11-13T19:51:22.801Z,7.59
2022-11-13T19:53:58.027Z,7.65
2022-11-13T19:56:25.988Z,7.55
2022-11-13T19:58:52.869Z,7.54
2022-11-13T20:01:27.353Z,7.50
2022-11-13T20:03:59.885Z,7.52
2022-11-13T20:06:27.880Z,7.47
2022-11-13T20:08:54.854Z,7.40
2022-11-13T20:11:21.451Z,7.33
2022-11-13T20:13:50.275Z,7.25
2022-11-13T20:16:17.445Z,7.32
2022-11-13T20:18:44.466Z,7.26
2022-11-13T20:21:11.091Z,7.22
2022-11-13T20:23:39.067Z,7.22
2022-11-13T20:26:08.739Z,7.13
2022-11-13T20:28:35.414Z,7.18
2022-11-13T20:31:16.377Z,7.17
2022-11-13T20:33:49.088Z,7.12
2022-11-13T20:36:17.142Z,7.04
2022-11-13T20:38:48.029Z,7.02
2022-11-13T20:41:15.347Z,6.96
2022-11-13T20:43:41.861Z,6.93
2022-11-13T20:46:15.880Z,6.88
2022-11-13T20:48:48.285Z,6.87
2022-11-13T20:51:19.414Z,6.75
2022-11-13T20:53:46.833Z,6.77
2022-11-13T20:56:13.880Z,6.77
2022-11-13T20:58:40.897Z,6.75
2022-11-13T21:01:10.646Z,6.66
2022-11-13T21:03:41.273Z,6.68
2022-11-13T21:06:10.169Z,6.64
2022-11-13T21:08:37.161Z,6.63
2022-11-13T21:11:07.912Z,6.57
2022-11-13T21:13:35.095Z,6.57
2022-11-13T21:16:08.494Z,6.55
2022-11-13T21:18:35.238Z,6.51
2022-11-13T21:21:14.839Z,6.48
2022-11-13T21:23:41.381Z,6.43
2022-11-13T21:26:09.247Z,6.42
2022-11-13T21:28:39.224Z,6.35
2022-11-13T21:31:09.856Z,6.34
2022-11-13T21:33:41.408Z,6.32
2022-11-13T21:36:15.352Z,6.27
2022-11-13T21:38:42.787Z,6.21
2022-11-13T21:41:26.649Z,6.19
2022-11-13T21:43:56.867Z,6.17
2022-11-13T21:46:36.315Z,6.15
2022-11-13T21:49:07.559Z,6.12
2022-11-13T21:51:36.483Z,6.06
2022-11-13T21:54:06.211Z,6.09
2022-11-13T21:56:34.300Z,5.93
2022-11-13T21:59:00.906Z,6.03
2022-11-13T22:01:27.678Z,5.93
2022-11-13T22:03:55.251Z,5.98
2022-11-13T22:06:27.088Z,5.95
2022-11-13T22:09:02.298Z,5.86
2022-11-13T22:11:31.944Z,5.92
2022-11-13T22:13:59.530Z,5.88
2022-11-13T22:16:27.941Z,5.83
2022-11-13T22:18:56.660Z,5.79
2022-11-13T22:21:29.697Z,5.76
2022-11-13T22:23:57.267Z,5.75
2022-11-13T22:26:25.484Z,5.74
2022-11-13T22:28:53.325Z,5.72
2022-11-13T22:31:22.896Z,5.67
2022-11-13T22:33:54.448Z,5.67
2022-11-13T22:36:27.776Z,5.62
2022-11-13T22:38:54.355Z,5.58
2022-11-13T22:41:30.801Z,5.56
2022-11-13T22:44:06.765Z,5.52
2022-11-13T22:46:35.473Z,5.48
2022-11-13T22:49:03.021Z,5.42
2022-11-13T22:51:32.105Z,5.46
2022-11-13T22:54:00.940Z,5.43
2022-11-13T22:56:30.015Z,5.38
2022-11-13T22:58:59.364Z,5.38
2022-11-13T23:01:30.725Z,5.38
2022-11-13T23:03:59.998Z,5.35
2022-11-13T23:06:28.802Z,5.32
2022-11-13T23:08:55.891Z,5.34
2022-11-13T23:11:25.458Z,5.31
2022-11-13T23:13:54.316Z,5.29
2022-11-13T23:16:22.830Z,5.18
2022-11-13T23:18:51.106Z,5.30
2022-11-13T23:21:18.469Z,5.27
2022-11-13T23:23:45.472Z,5.30
2022-11-13T23:26:14.026Z,5.33
2022-11-13T23:28:41.011Z,5.28
2022-11-13T23:31:08.406Z,5.21
2022-11-13T23:33:38.181Z,5.24
2022-11-13T23:36:10.182Z,5.23
2022-11-13T23:38:37.079Z,5.24
2022-11-13T23:41:03.752Z,5.20
2022-11-13T23:43:54.400Z,5.18
2022-11-13T23:46:17.392Z,5.18
2022-11-13T23:48:43.929Z,5.14
2022-11-13T23:51:10.545Z,5.10
2022-11-13T23:53:37.182Z,5.06
2022-11-13T23:56:03.932Z,5.09
2022-11-13T23:58:33.400Z,5.09
